sensor_id;sensor_type;location;lat;lon;timestamp;temperature;humidity
18444;DHT22;9350;53.176;8.194;2024-01-10T00:02:22;-3.10;99.90
18444;DHT22;9350;53.176;8.194;2024-01-10T00:04:49;-3.00;99.90
18444;DHT22;9350;53.176;8.194;2024-01-10T00:07:17;-3.00;99.90
18444;DHT22;9350;53.176;8.194;2024-01-10T00:09:44;-3.00;99.90
18444;DHT22;9350;53.176;8.194;2024-01-10T00:12:12;-3.00;99.90
18444;DHT22;9350;53.176;8.194;2024-01-10T00:14:39;-3.00;99.90
18444;DHT22;9350;53.176;8.194;2024-01-10T00:17:08;-3.00;99.90
18444;DHT22;9350;53.176;8.194;2024-01-10T00:19:34;-3.00;99.90
18444;DHT22;9350;53.176;8.194;2024-01-10T00:22:01;-3.00;99.90
18444;DHT22;9350;53.176;8.194;2024-01-10T00:24:29;-3.00;99.90
18444;DHT22;9350;53.176;8.194;2024-01-10T00:26:56;-3.00;99.90
18444;DHT22;9350;53.176;8.194;2024-01-10T00:29:23;-2.90;99.90
18444;DHT22;9350;53.176;8.194;2024-01-10T00:31:50;-3.10;99.90
18444;DHT22;9350;53.176;8.194;2024-01-10T00:34:18;-3.00;99.90
18444;DHT22;9350;53.176;8.194;2024-01-10T00:36:45;-3.00;99.90
18444;DHT22;9350;53.176;8.194;2024-01-10T00:39:11;-3.10;99.90
18444;DHT22;9350;53.176;8.194;2024-01-10T00:41:39;-3.10;99.90
18444;DHT22;9350;53.176;8.194;2024-01-10T00:44:06;-3.10;99.90
18444;DHT22;9350;53.176;8.194;2024-01-10T00:46:33;-3.20;99.90
18444;DHT22;9350;53.176;8.194;2024-01-10T00:49:00;-3.10;99.90
18444;DHT22;9350;53.176;8.194;2024-01-10T00:51:27;-3.00;99.90
18444;DHT22;9350;53.176;8.194;2024-01-10T00:53:53;-3.10;99.90
18444;DHT22;9350;53.176;8.194;2024-01-10T00:56:20;-3.10;99.90
18444;DHT22;9350;53.176;8.194;2024-01-10T00:58:49;-3.00;99.90
18444;DHT22;9350;53.176;8.194;2024-01-10T01:01:15;-2.90;99.90
18444;DHT22;9350;53.176;8.194;2024-01-10T01:03:42;-2.90;99.90
18444;DHT22;9350;53.176;8.194;2024-01-10T01:06:09;-2.90;99.90
18444;DHT22;9350;53.176;8.194;2024-01-10T01:08:36;-2.80;99.90
18444;DHT22;9350;53.176;8.194;2024-01-10T01:11:03;-3.00;99.90
18444;DHT22;9350;53.176;8.194;2024-01-10T01:13:29;-3.00;99.90
18444;DHT22;9350;53.176;8.194;2024-01-10T01:15:57;-3.00;99.90
18444;DHT22;9350;53.176;8.194;2024-01-10T01:18:24;-2.90;99.90
18444;DHT22;9350;53.176;8.194;2024-01-10T01:20:51;-3.00;99.90
18444;DHT22;9350;53.176;8.194;2024-01-10T01:23:18;-3.00;99.90
18444;DHT22;9350;53.176;8.194;2024-01-10T01:25:45;-3.10;99.90
18444;DHT22;9350;53.176;8.194;2024-01-10T01:28:11;-3.10;99.90
18444;DHT22;9350;53.176;8.194;2024-01-10T01:30:38;-2.90;99.90
18444;DHT22;9350;53.176;8.194;2024-01-10T01:33:07;-2.90;99.90
18444;DHT22;9350;53.176;8.194;2024-01-10T01:35:33;-3.00;99.90
18444;DHT22;9350;53.176;8.194;2024-01-10T01:38:00;-2.90;99.90
18444;DHT22;9350;53.176;8.194;2024-01-10T01:40:27;-3.00;99.90
18444;DHT22;9350;53.176;8.194;2024-01-10T01:42:54;-3.00;99.90
18444;DHT22;9350;53.176;8.194;2024-01-10T01:45:20;-3.10;99.90
18444;DHT22;9350;53.176;8.194;2024-01-10T01:47:47;-3.00;99.90
18444;DHT22;9350;53.176;8.194;2024-01-10T01:50:16;-2.90;99.90
18444;DHT22;9350;53.176;8.194;2024-01-10T01:52:43;-2.90;99.90
18444;DHT22;9350;53.176;8.194;2024-01-10T01:55:10;-3.00;99.90
18444;DHT22;9350;53.176;8.194;2024-01-10T01:57:37;-3.00;99.90
18444;DHT22;9350;53.176;8.194;2024-01-10T02:10:30;-3.00;99.90
18444;DHT22;9350;53.176;8.194;2024-01-10T02:12:57;-3.00;99.90
18444;DHT22;9350;53.176;8.194;2024-01-10T02:15:24;-2.90;99.90
18444;DHT22;9350;53.176;8.194;2024-01-10T02:17:51;-2.90;99.90
18444;DHT22;9350;53.176;8.194;2024-01-10T02:20:18;-3.00;99.90
18444;DHT22;9350;53.176;8.194;2024-01-10T02:22:46;-3.00;99.90
18444;DHT22;9350;53.176;8.194;2024-01-10T02:25:17;-3.00;99.90
18444;DHT22;9350;53.176;8.194;2024-01-10T02:27:43;-3.00;99.90
18444;DHT22;9350;53.176;8.194;2024-01-10T02:30:11;-3.00;99.90
18444;DHT22;9350;53.176;8.194;2024-01-10T02:32:38;-3.00;99.90
18444;DHT22;9350;53.176;8.194;2024-01-10T02:35:05;-3.00;99.90
18444;DHT22;9350;53.176;8.194;2024-01-10T02:37:32;-3.10;99.90
18444;DHT22;9350;53.176;8.194;2024-01-10T02:39:59;-3.10;99.90
18444;DHT22;9350;53.176;8.194;2024-01-10T02:42:28;-3.00;99.90
18444;DHT22;9350;53.176;8.194;2024-01-10T02:44:55;-2.80;99.90
18444;DHT22;9350;53.176;8.194;2024-01-10T02:47:22;-3.00;99.90
18444;DHT22;9350;53.176;8.194;2024-01-10T02:49:49;-3.00;99.90
18444;DHT22;9350;53.176;8.194;2024-01-10T02:52:16;-3.00;99.90
18444;DHT22;9350;53.176;8.194;2024-01-10T02:54:45;-3.00;99.90
18444;DHT22;9350;53.176;8.194;2024-01-10T02:57:11;-2.90;99.90
18444;DHT22;9350;53.176;8.194;2024-01-10T02:59:40;-3.00;99.90
18444;DHT22;9350;53.176;8.194;2024-01-10T03:02:06;-3.00;99.90
18444;DHT22;9350;53.176;8.194;2024-01-10T03:04:33;-3.10;99.90
18444;DHT22;9350;53.176;8.194;2024-01-10T03:07:00;-3.00;99.90
18444;DHT22;9350;53.176;8.194;2024-01-10T03:09:27;-3.10;99.90
18444;DHT22;9350;53.176;8.194;2024-01-10T03:11:53;-3.10;99.90
18444;DHT22;9350;53.176;8.194;2024-01-10T03:14:20;-3.00;99.90
18444;DHT22;9350;53.176;8.194;2024-01-10T03:16:49;-2.90;99.90
18444;DHT22;9350;53.176;8.194;2024-01-10T03:19:16;-3.00;99.90
18444;DHT22;9350;53.176;8.194;2024-01-10T03:21:42;-3.00;99.90
18444;DHT22;9350;53.176;8.194;2024-01-10T03:24:09;-3.00;99.90
18444;DHT22;9350;53.176;8.194;2024-01-10T03:26:36;-3.00;99.90
18444;DHT22;9350;53.176;8.194;2024-01-10T03:29:03;-3.00;99.90
18444;DHT22;9350;53.176;8.194;2024-01-10T03:31:30;-3.00;99.90
18444;DHT22;9350;53.176;8.194;2024-01-10T03:33:58;-3.10;99.90
18444;DHT22;9350;53.176;8.194;2024-01-10T03:36:25;-3.00;99.90
18444;DHT22;9350;53.176;8.194;2024-01-10T03:38:52;-2.90;99.90
18444;DHT22;9350;53.176;8.194;2024-01-10T03:41:20;-2.90;99.90
18444;DHT22;9350;53.176;8.194;2024-01-10T03:43:47;-3.00;99.90
18444;DHT22;9350;53.176;8.194;2024-01-10T03:46:14;-3.00;99.90
18444;DHT22;9350;53.176;8.194;2024-01-10T03:48:42;-3.10;99.90
18444;DHT22;9350;53.176;8.194;2024-01-10T03:51:14;-3.10;99.90
18444;DHT22;9350;53.176;8.194;2024-01-10T03:53:41;-3.10;99.90
18444;DHT22;9350;53.176;8.194;2024-01-10T03:56:08;-3.10;99.90
18444;DHT22;9350;53.176;8.194;2024-01-10T03:58:35;-3.10;99.90
18444;DHT22;9350;53.176;8.194;2024-01-10T04:01:04;-3.10;99.90
18444;DHT22;9350;53.176;8.194;2024-01-10T04:03:31;-3.10;99.90
18444;DHT22;9350;53.176;8.194;2024-01-10T04:05:58;-3.10;99.90
18444;DHT22;9350;53.176;8.194;2024-01-10T04:08:26;-3.10;99.90
18444;DHT22;9350;53.176;8.194;2024-01-10T04:10:53;-3.20;99.90
18444;DHT22;9350;53.176;8.194;2024-01-10T04:13:20;-3.10;99.90
18444;DHT22;9350;53.176;8.194;2024-01-10T04:15:47;-3.20;99.90
18444;DHT22;9350;53.176;8.194;2024-01-10T04:18:14;-3.20;99.90
18444;DHT22;9350;53.176;8.194;2024-01-10T04:20:41;-3.20;99.90
18444;DHT22;9350;53.176;8.194;2024-01-10T04:23:09;-3.20;99.90
18444;DHT22;9350;53.176;8.194;2024-01-10T04:25:37;-3.30;99.90
18444;DHT22;9350;53.176;8.194;2024-01-10T04:28:05;-3.20;99.90
18444;DHT22;9350;53.176;8.194;2024-01-10T04:30:31;-3.30;99.90
18444;DHT22;9350;53.176;8.194;2024-01-10T04:32:58;-3.30;99.90
18444;DHT22;9350;53.176;8.194;2024-01-10T04:35:25;-3.30;99.90
18444;DHT22;9350;53.176;8.194;2024-01-10T04:37:52;-3.30;99.90
18444;DHT22;9350;53.176;8.194;2024-01-10T04:40:19;-3.30;99.90
18444;DHT22;9350;53.176;8.194;2024-01-10T04:42:47;-3.30;99.90
18444;DHT22;9350;53.176;8.194;2024-01-10T04:45:14;-3.50;99.90
18444;DHT22;9350;53.176;8.194;2024-01-10T04:47:41;-3.40;99.90
18444;DHT22;9350;53.176;8.194;2024-01-10T04:50:08;-3.30;99.90
18444;DHT22;9350;53.176;8.194;2024-01-10T04:52:35;-3.30;99.90
18444;DHT22;9350;53.176;8.194;2024-01-10T04:55:02;-3.30;99.90
18444;DHT22;9350;53.176;8.194;2024-01-10T04:57:31;-3.40;99.90
18444;DHT22;9350;53.176;8.194;2024-01-10T04:59:59;-3.50;99.90
18444;DHT22;9350;53.176;8.194;2024-01-10T05:02:26;-3.40;99.90
18444;DHT22;9350;53.176;8.194;2024-01-10T05:04:53;-3.40;99.90
18444;DHT22;9350;53.176;8.194;2024-01-10T05:07:19;-3.50;99.90
18444;DHT22;9350;53.176;8.194;2024-01-10T05:09:46;-3.40;99.90
18444;DHT22;9350;53.176;8.194;2024-01-10T05:12:13;-3.40;99.90
18444;DHT22;9350;53.176;8.194;2024-01-10T05:14:40;-3.40;99.90
18444;DHT22;9350;53.176;8.194;2024-01-10T05:17:08;-3.50;99.90
18444;DHT22;9350;53.176;8.194;2024-01-10T05:19:35;-3.40;99.90
18444;DHT22;9350;53.176;8.194;2024-01-10T05:22:02;-3.40;99.90
18444;DHT22;9350;53.176;8.194;2024-01-10T05:24:30;-3.40;99.90
18444;DHT22;9350;53.176;8.194;2024-01-10T05:26:56;-3.50;99.90
18444;DHT22;9350;53.176;8.194;2024-01-10T05:29:23;-3.50;99.90
18444;DHT22;9350;53.176;8.194;2024-01-10T05:31:51;-3.50;99.90
18444;DHT22;9350;53.176;8.194;2024-01-10T05:34:19;-3.50;99.90
18444;DHT22;9350;53.176;8.194;2024-01-10T05:36:46;-3.40;99.90
18444;DHT22;9350;53.176;8.194;2024-01-10T05:39:13;-3.40;99.90
18444;DHT22;9350;53.176;8.194;2024-01-10T05:41:41;-3.30;99.90
18444;DHT22;9350;53.176;8.194;2024-01-10T05:44:09;-3.50;99.90
18444;DHT22;9350;53.176;8.194;2024-01-10T05:46:35;-3.30;99.90
18444;DHT22;9350;53.176;8.194;2024-01-10T05:49:03;-3.40;99.90
18444;DHT22;9350;53.176;8.194;2024-01-10T05:51:32;-3.40;99.90
18444;DHT22;9350;53.176;8.194;2024-01-10T05:53:59;-3.30;99.90
18444;DHT22;9350;53.176;8.194;2024-01-10T05:56:25;-3.30;99.90
18444;DHT22;9350;53.176;8.194;2024-01-10T05:58:52;-3.30;99.90
18444;DHT22;9350;53.176;8.194;2024-01-10T06:01:19;-3.20;99.90
18444;DHT22;9350;53.176;8.194;2024-01-10T06:03:46;-3.20;99.90
18444;DHT22;9350;53.176;8.194;2024-01-10T06:06:13;-3.20;99.90
18444;DHT22;9350;53.176;8.194;2024-01-10T06:08:41;-3.30;99.90
18444;DHT22;9350;53.176;8.194;2024-01-10T06:11:08;-3.30;99.90
18444;DHT22;9350;53.176;8.194;2024-01-10T06:13:35;-3.30;99.90
18444;DHT22;9350;53.176;8.194;2024-01-10T06:16:03;-3.30;99.90
18444;DHT22;9350;53.176;8.194;2024-01-10T06:18:29;-3.40;99.90
18444;DHT22;9350;53.176;8.194;2024-01-10T06:20:56;-3.30;99.90
18444;DHT22;9350;53.176;8.194;2024-01-10T06:23:23;-3.30;99.90
18444;DHT22;9350;53.176;8.194;2024-01-10T06:25:51;-3.20;99.90
18444;DHT22;9350;53.176;8.194;2024-01-10T06:28:20;-3.20;99.90
18444;DHT22;9350;53.176;8.194;2024-01-10T06:30:47;-3.30;99.90
18444;DHT22;9350;53.176;8.194;2024-01-10T06:33:13;-3.30;99.90
18444;DHT22;9350;53.176;8.194;2024-01-10T06:35:40;-3.30;99.90
18444;DHT22;9350;53.176;8.194;2024-01-10T06:38:08;-3.20;99.90
18444;DHT22;9350;53.176;8.194;2024-01-10T06:40:35;-3.30;99.90
18444;DHT22;9350;53.176;8.194;2024-01-10T06:43:04;-3.40;99.90
18444;DHT22;9350;53.176;8.194;2024-01-10T06:45:34;-3.30;99.90
18444;DHT22;9350;53.176;8.194;2024-01-10T06:48:00;-3.20;99.90
18444;DHT22;9350;53.176;8.194;2024-01-10T06:50:27;-3.30;99.90
18444;DHT22;9350;53.176;8.194;2024-01-10T06:52:56;-3.30;99.90
18444;DHT22;9350;53.176;8.194;2024-01-10T06:55:22;-3.30;99.90
18444;DHT22;9350;53.176;8.194;2024-01-10T06:57:49;-3.30;99.90
18444;DHT22;9350;53.176;8.194;2024-01-10T07:00:20;-3.30;99.90
18444;DHT22;9350;53.176;8.194;2024-01-10T07:02:47;-3.40;99.90
18444;DHT22;9350;53.176;8.194;2024-01-10T07:05:14;-3.40;99.90
18444;DHT22;9350;53.176;8.194;2024-01-10T07:07:41;-3.40;99.90
18444;DHT22;9350;53.176;8.194;2024-01-10T07:10:09;-3.40;99.90
18444;DHT22;9350;53.176;8.194;2024-01-10T07:12:36;-3.50;99.90
18444;DHT22;9350;53.176;8.194;2024-01-10T07:15:04;-3.40;99.90
18444;DHT22;9350;53.176;8.194;2024-01-10T07:17:32;-3.40;99.90
18444;DHT22;9350;53.176;8.194;2024-01-10T07:19:59;-3.40;99.90
18444;DHT22;9350;53.176;8.194;2024-01-10T07:22:26;-3.30;99.90
18444;DHT22;9350;53.176;8.194;2024-01-10T07:24:52;-3.30;99.90
18444;DHT22;9350;53.176;8.194;2024-01-10T07:27:19;-3.30;99.90
18444;DHT22;9350;53.176;8.194;2024-01-10T07:29:46;-3.20;99.90
18444;DHT22;9350;53.176;8.194;2024-01-10T07:32:13;-3.20;99.90
18444;DHT22;9350;53.176;8.194;2024-01-10T07:34:41;-3.30;99.90
18444;DHT22;9350;53.176;8.194;2024-01-10T07:37:08;-3.40;99.90
18444;DHT22;9350;53.176;8.194;2024-01-10T07:39:36;-3.30;99.90
18444;DHT22;9350;53.176;8.194;2024-01-10T07:42:03;-3.30;99.90
18444;DHT22;9350;53.176;8.194;2024-01-10T07:44:30;-3.30;99.90
18444;DHT22;9350;53.176;8.194;2024-01-10T07:46:57;-3.30;99.90
18444;DHT22;9350;53.176;8.194;2024-01-10T07:49:24;-3.30;99.90
18444;DHT22;9350;53.176;8.194;2024-01-10T07:51:53;-3.20;99.90
18444;DHT22;9350;53.176;8.194;2024-01-10T07:54:19;-3.20;99.90
18444;DHT22;9350;53.176;8.194;2024-01-10T07:56:46;-3.10;99.90
18444;DHT22;9350;53.176;8.194;2024-01-10T07:59:13;-3.10;99.90
18444;DHT22;9350;53.176;8.194;2024-01-10T08:01:43;-3.10;99.90
18444;DHT22;9350;53.176;8.194;2024-01-10T08:04:10;-3.10;99.90
18444;DHT22;9350;53.176;8.194;2024-01-10T08:06:37;-3.10;99.90
18444;DHT22;9350;53.176;8.194;2024-01-10T08:09:05;-3.10;99.90
18444;DHT22;9350;53.176;8.194;2024-01-10T08:11:32;-3.10;99.90
18444;DHT22;9350;53.176;8.194;2024-01-10T08:14:00;-3.10;99.90
18444;DHT22;9350;53.176;8.194;2024-01-10T08:16:27;-3.00;99.90
18444;DHT22;9350;53.176;8.194;2024-01-10T08:18:53;-3.00;99.90
18444;DHT22;9350;53.176;8.194;2024-01-10T08:21:20;-3.10;99.90
18444;DHT22;9350;53.176;8.194;2024-01-10T08:23:47;-3.00;99.90
18444;DHT22;9350;53.176;8.194;2024-01-10T08:26:15;-3.00;99.90
18444;DHT22;9350;53.176;8.194;2024-01-10T08:28:42;-2.90;99.90
18444;DHT22;9350;53.176;8.194;2024-01-10T08:31:09;-2.90;99.90
18444;DHT22;9350;53.176;8.194;2024-01-10T08:33:36;-2.80;99.90
18444;DHT22;9350;53.176;8.194;2024-01-10T08:36:03;-2.90;99.90
18444;DHT22;9350;53.176;8.194;2024-01-10T08:38:29;-2.80;99.90
18444;DHT22;9350;53.176;8.194;2024-01-10T08:40:56;-2.80;99.90
18444;DHT22;9350;53.176;8.194;2024-01-10T08:43:24;-2.80;99.90
18444;DHT22;9350;53.176;8.194;2024-01-10T08:45:51;-2.70;99.90
18444;DHT22;9350;53.176;8.194;2024-01-10T08:48:18;-2.80;99.90
18444;DHT22;9350;53.176;8.194;2024-01-10T08:50:45;-2.80;99.90
18444;DHT22;9350;53.176;8.194;2024-01-10T08:53:12;-2.80;99.90
18444;DHT22;9350;53.176;8.194;2024-01-10T08:55:39;-2.70;99.90
18444;DHT22;9350;53.176;8.194;2024-01-10T08:58:05;-2.70;99.90
18444;DHT22;9350;53.176;8.194;2024-01-10T09:00:34;-2.70;99.90
18444;DHT22;9350;53.176;8.194;2024-01-10T09:03:02;-2.70;99.90
18444;DHT22;9350;53.176;8.194;2024-01-10T09:05:29;-2.80;99.90
18444;DHT22;9350;53.176;8.194;2024-01-10T09:07:56;-2.60;99.90
18444;DHT22;9350;53.176;8.194;2024-01-10T09:10:23;-2.60;99.90
18444;DHT22;9350;53.176;8.194;2024-01-10T09:12:53;-2.60;99.90
18444;DHT22;9350;53.176;8.194;2024-01-10T09:15:20;-2.60;99.90
18444;DHT22;9350;53.176;8.194;2024-01-10T09:17:48;-2.50;99.90
18444;DHT22;9350;53.176;8.194;2024-01-10T09:20:14;-2.50;99.90
18444;DHT22;9350;53.176;8.194;2024-01-10T09:22:42;-2.50;99.90
18444;DHT22;9350;53.176;8.194;2024-01-10T09:25:09;-2.50;99.90
18444;DHT22;9350;53.176;8.194;2024-01-10T09:27:39;-2.50;99.90
18444;DHT22;9350;53.176;8.194;2024-01-10T09:30:07;-2.50;99.90
18444;DHT22;9350;53.176;8.194;2024-01-10T09:32:34;-2.50;99.90
18444;DHT22;9350;53.176;8.194;2024-01-10T09:35:03;-2.50;99.90
18444;DHT22;9350;53.176;8.194;2024-01-10T09:37:30;-2.40;99.90
18444;DHT22;9350;53.176;8.194;2024-01-10T09:39:57;-2.40;99.90
18444;DHT22;9350;53.176;8.194;2024-01-10T09:42:24;-2.40;99.90
18444;DHT22;9350;53.176;8.194;2024-01-10T09:44:51;-2.40;99.90
18444;DHT22;9350;53.176;8.194;2024-01-10T09:47:20;-2.40;99.90
18444;DHT22;9350;53.176;8.194;2024-01-10T09:49:47;-2.40;99.90
18444;DHT22;9350;53.176;8.194;2024-01-10T09:52:23;-2.30;99.90
18444;DHT22;9350;53.176;8.194;2024-01-10T09:54:54;-2.30;99.90
18444;DHT22;9350;53.176;8.194;2024-01-10T09:57:21;-2.30;99.90
18444;DHT22;9350;53.176;8.194;2024-01-10T09:59:49;-2.30;99.90
18444;DHT22;9350;53.176;8.194;2024-01-10T10:02:18;-2.20;99.90
18444;DHT22;9350;53.176;8.194;2024-01-10T10:04:53;-2.20;99.90
18444;DHT22;9350;53.176;8.194;2024-01-10T10:07:21;-2.20;99.90
18444;DHT22;9350;53.176;8.194;2024-01-10T10:09:48;-2.20;99.90
18444;DHT22;9350;53.176;8.194;2024-01-10T10:12:15;-2.20;99.90
18444;DHT22;9350;53.176;8.194;2024-01-10T10:14:43;-2.20;99.90
18444;DHT22;9350;53.176;8.194;2024-01-10T10:17:16;-2.20;99.90
18444;DHT22;9350;53.176;8.194;2024-01-10T10:19:43;-2.20;99.90
18444;DHT22;9350;53.176;8.194;2024-01-10T10:22:11;-2.10;99.90
18444;DHT22;9350;53.176;8.194;2024-01-10T10:24:39;-2.00;99.90
18444;DHT22;9350;53.176;8.194;2024-01-10T10:27:11;-2.10;99.90
18444;DHT22;9350;53.176;8.194;2024-01-10T10:29:38;-2.00;99.90
18444;DHT22;9350;53.176;8.194;2024-01-10T10:32:06;-2.00;99.90
18444;DHT22;9350;53.176;8.194;2024-01-10T10:34:34;-2.00;99.90
18444;DHT22;9350;53.176;8.194;2024-01-10T10:37:01;-1.90;99.90
18444;DHT22;9350;53.176;8.194;2024-01-10T10:39:28;-1.90;99.90
18444;DHT22;9350;53.176;8.194;2024-01-10T10:41:56;-1.90;99.90
18444;DHT22;9350;53.176;8.194;2024-01-10T10:44:24;-2.00;99.90
18444;DHT22;9350;53.176;8.194;2024-01-10T10:46:53;-1.90;99.90
18444;DHT22;9350;53.176;8.194;2024-01-10T10:49:23;-1.90;99.90
18444;DHT22;9350;53.176;8.194;2024-01-10T10:51:52;-1.90;99.90
18444;DHT22;9350;53.176;8.194;2024-01-10T10:54:19;-1.90;99.90
18444;DHT22;9350;53.176;8.194;2024-01-10T10:56:48;-1.90;99.90
18444;DHT22;9350;53.176;8.194;2024-01-10T10:59:18;-1.80;99.90
18444;DHT22;9350;53.176;8.194;2024-01-10T11:01:47;-1.70;99.90
18444;DHT22;9350;53.176;8.194;2024-01-10T11:04:14;-1.70;99.90
18444;DHT22;9350;53.176;8.194;2024-01-10T11:06:41;-1.70;99.90
18444;DHT22;9350;53.176;8.194;2024-01-10T11:09:10;-1.70;99.90
18444;DHT22;9350;53.176;8.194;2024-01-10T11:11:54;-1.60;99.90
18444;DHT22;9350;53.176;8.194;2024-01-10T11:14:38;-1.60;99.90
18444;DHT22;9350;53.176;8.194;2024-01-10T11:17:33;-1.50;99.90
18444;DHT22;9350;53.176;8.194;2024-01-10T11:20:27;-1.50;99.90
18444;DHT22;9350;53.176;8.194;2024-01-10T11:23:16;-1.40;99.90
18444;DHT22;9350;53.176;8.194;2024-01-10T11:25:48;-1.50;99.90
18444;DHT22;9350;53.176;8.194;2024-01-10T11:28:15;-1.50;99.90
18444;DHT22;9350;53.176;8.194;2024-01-10T11:30:50;-1.50;99.90
18444;DHT22;9350;53.176;8.194;2024-01-10T11:33:19;-1.50;99.90
18444;DHT22;9350;53.176;8.194;2024-01-10T11:36:05;-1.50;99.90
18444;DHT22;9350;53.176;8.194;2024-01-10T11:38:32;-1.40;99.90
18444;DHT22;9350;53.176;8.194;2024-01-10T11:41:00;-1.40;99.90
18444;DHT22;9350;53.176;8.194;2024-01-10T11:43:27;-1.50;99.90
18444;DHT22;9350;53.176;8.194;2024-01-10T11:45:56;-1.40;99.90
18444;DHT22;9350;53.176;8.194;2024-01-10T11:48:26;-1.40;99.90
18444;DHT22;9350;53.176;8.194;2024-01-10T11:50:54;-1.30;99.90
18444;DHT22;9350;53.176;8.194;2024-01-10T11:53:40;-1.20;99.90
18444;DHT22;9350;53.176;8.194;2024-01-10T11:56:12;-1.20;99.90
18444;DHT22;9350;53.176;8.194;2024-01-10T11:58:53;-1.20;99.90
18444;DHT22;9350;53.176;8.194;2024-01-10T12:01:22;-1.20;99.90
18444;DHT22;9350;53.176;8.194;2024-01-10T12:03:51;-1.20;99.90
18444;DHT22;9350;53.176;8.194;2024-01-10T12:06:19;-1.10;99.90
18444;DHT22;9350;53.176;8.194;2024-01-10T12:08:47;-1.20;99.90
18444;DHT22;9350;53.176;8.194;2024-01-10T12:11:14;-1.20;99.90
18444;DHT22;9350;53.176;8.194;2024-01-10T12:13:42;-1.10;99.90
18444;DHT22;9350;53.176;8.194;2024-01-10T12:16:09;-1.10;99.90
18444;DHT22;9350;53.176;8.194;2024-01-10T12:18:37;-1.20;99.90
18444;DHT22;9350;53.176;8.194;2024-01-10T12:21:05;-1.10;99.90
18444;DHT22;9350;53.176;8.194;2024-01-10T12:23:34;-1.10;99.90
18444;DHT22;9350;53.176;8.194;2024-01-10T12:26:01;-1.00;99.90
18444;DHT22;9350;53.176;8.194;2024-01-10T12:28:28;-1.00;99.90
18444;DHT22;9350;53.176;8.194;2024-01-10T12:30:55;-1.00;99.90
18444;DHT22;9350;53.176;8.194;2024-01-10T12:33:22;-1.00;99.90
18444;DHT22;9350;53.176;8.194;2024-01-10T12:36:06;-1.00;99.90
18444;DHT22;9350;53.176;8.194;2024-01-10T12:38:34;-0.90;99.90
18444;DHT22;9350;53.176;8.194;2024-01-10T12:41:01;-1.00;99.90
18444;DHT22;9350;53.176;8.194;2024-01-10T12:43:28;-1.00;99.90
18444;DHT22;9350;53.176;8.194;2024-01-10T12:46:05;-0.90;99.90
18444;DHT22;9350;53.176;8.194;2024-01-10T12:48:32;-0.90;99.90
18444;DHT22;9350;53.176;8.194;2024-01-10T12:51:03;-0.90;99.90
18444;DHT22;9350;53.176;8.194;2024-01-10T12:53:33;-0.90;99.90
18444;DHT22;9350;53.176;8.194;2024-01-10T12:56:00;-1.00;99.90
18444;DHT22;9350;53.176;8.194;2024-01-10T12:58:28;-0.90;99.90
18444;DHT22;9350;53.176;8.194;2024-01-10T13:00:55;-0.80;99.90
18444;DHT22;9350;53.176;8.194;2024-01-10T13:03:22;-0.90;99.90
18444;DHT22;9350;53.176;8.194;2024-01-10T13:05:49;-0.90;99.90
18444;DHT22;9350;53.176;8.194;2024-01-10T13:08:17;-1.00;99.90
18444;DHT22;9350;53.176;8.194;2024-01-10T13:10:45;-0.90;99.90
18444;DHT22;9350;53.176;8.194;2024-01-10T13:13:13;-0.80;99.90
18444;DHT22;9350;53.176;8.194;2024-01-10T13:15:40;-0.90;99.90
18444;DHT22;9350;53.176;8.194;2024-01-10T13:18:08;-0.90;99.90
18444;DHT22;9350;53.176;8.194;2024-01-10T13:20:35;-1.00;99.90
18444;DHT22;9350;53.176;8.194;2024-01-10T13:23:03;-0.90;99.90
18444;DHT22;9350;53.176;8.194;2024-01-10T13:25:31;-0.80;99.90
18444;DHT22;9350;53.176;8.194;2024-01-10T13:27:58;-0.90;99.90
18444;DHT22;9350;53.176;8.194;2024-01-10T13:30:26;-0.90;99.90
18444;DHT22;9350;53.176;8.194;2024-01-10T13:32:53;-0.80;99.90
18444;DHT22;9350;53.176;8.194;2024-01-10T13:35:20;-0.90;99.90
18444;DHT22;9350;53.176;8.194;2024-01-10T13:37:48;-0.90;99.90
18444;DHT22;9350;53.176;8.194;2024-01-10T13:40:14;-0.80;99.90
18444;DHT22;9350;53.176;8.194;2024-01-10T13:42:43;-0.80;99.90
18444;DHT22;9350;53.176;8.194;2024-01-10T13:45:10;-0.90;99.90
18444;DHT22;9350;53.176;8.194;2024-01-10T13:47:37;-0.90;99.90
18444;DHT22;9350;53.176;8.194;2024-01-10T13:50:05;-0.90;99.90
18444;DHT22;9350;53.176;8.194;2024-01-10T13:52:32;-0.90;99.90
18444;DHT22;9350;53.176;8.194;2024-01-10T13:55:00;-0.90;99.90
18444;DHT22;9350;53.176;8.194;2024-01-10T13:57:27;-0.90;99.90
18444;DHT22;9350;53.176;8.194;2024-01-10T13:59:55;-0.90;99.90
18444;DHT22;9350;53.176;8.194;2024-01-10T14:02:21;-0.80;99.90
18444;DHT22;9350;53.176;8.194;2024-01-10T14:04:48;-0.80;99.90
18444;DHT22;9350;53.176;8.194;2024-01-10T14:07:15;-0.80;99.90
18444;DHT22;9350;53.176;8.194;2024-01-10T14:09:42;-0.80;99.90
18444;DHT22;9350;53.176;8.194;2024-01-10T14:12:10;-0.80;99.90
18444;DHT22;9350;53.176;8.194;2024-01-10T14:14:37;-0.80;99.90
18444;DHT22;9350;53.176;8.194;2024-01-10T14:17:05;-0.80;99.90
18444;DHT22;9350;53.176;8.194;2024-01-10T14:19:32;-0.80;99.90
18444;DHT22;9350;53.176;8.194;2024-01-10T14:22:00;-0.70;99.90
18444;DHT22;9350;53.176;8.194;2024-01-10T14:24:26;-0.80;99.90
18444;DHT22;9350;53.176;8.194;2024-01-10T14:26:53;-0.70;99.90
18444;DHT22;9350;53.176;8.194;2024-01-10T14:29:20;-0.80;99.90
18444;DHT22;9350;53.176;8.194;2024-01-10T14:31:48;-0.80;99.90
18444;DHT22;9350;53.176;8.194;2024-01-10T14:34:16;-0.80;99.90
18444;DHT22;9350;53.176;8.194;2024-01-10T14:36:43;-0.80;99.90
18444;DHT22;9350;53.176;8.194;2024-01-10T14:39:09;-0.80;99.90
18444;DHT22;9350;53.176;8.194;2024-01-10T14:41:38;-0.70;99.90
18444;DHT22;9350;53.176;8.194;2024-01-10T14:44:05;-0.80;99.90
18444;DHT22;9350;53.176;8.194;2024-01-10T14:46:31;-0.80;99.90
18444;DHT22;9350;53.176;8.194;2024-01-10T14:48:58;-0.80;99.90
18444;DHT22;9350;53.176;8.194;2024-01-10T14:51:27;-0.80;99.90
18444;DHT22;9350;53.176;8.194;2024-01-10T14:53:54;-0.80;99.90
18444;DHT22;9350;53.176;8.194;2024-01-10T14:56:21;-0.90;99.90
18444;DHT22;9350;53.176;8.194;2024-01-10T14:58:48;-0.70;99.90
18444;DHT22;9350;53.176;8.194;2024-01-10T15:01:16;-0.90;99.90
18444;DHT22;9350;53.176;8.194;2024-01-10T15:03:43;-0.90;99.90
18444;DHT22;9350;53.176;8.194;2024-01-10T15:06:10;-0.90;99.90
18444;DHT22;9350;53.176;8.194;2024-01-10T15:08:40;-0.90;99.90
18444;DHT22;9350;53.176;8.194;2024-01-10T15:11:07;-0.80;99.90
18444;DHT22;9350;53.176;8.194;2024-01-10T15:13:36;-0.90;99.90
18444;DHT22;9350;53.176;8.194;2024-01-10T15:16:03;-0.90;99.90
18444;DHT22;9350;53.176;8.194;2024-01-10T15:18:30;-0.90;99.90
18444;DHT22;9350;53.176;8.194;2024-01-10T15:20:58;-1.00;99.90
18444;DHT22;9350;53.176;8.194;2024-01-10T15:23:25;-1.10;99.90
18444;DHT22;9350;53.176;8.194;2024-01-10T15:25:53;-1.10;99.90
18444;DHT22;9350;53.176;8.194;2024-01-10T15:28:20;-1.20;99.90
18444;DHT22;9350;53.176;8.194;2024-01-10T15:30:47;-1.20;99.90
18444;DHT22;9350;53.176;8.194;2024-01-10T15:33:14;-1.10;99.90
18444;DHT22;9350;53.176;8.194;2024-01-10T15:35:41;-1.10;99.90
18444;DHT22;9350;53.176;8.194;2024-01-10T15:38:08;-1.20;99.90
18444;DHT22;9350;53.176;8.194;2024-01-10T15:40:35;-1.20;99.90
18444;DHT22;9350;53.176;8.194;2024-01-10T15:43:03;-1.20;99.90
18444;DHT22;9350;53.176;8.194;2024-01-10T15:45:30;-1.20;99.90
18444;DHT22;9350;53.176;8.194;2024-01-10T15:47:59;-1.30;99.90
18444;DHT22;9350;53.176;8.194;2024-01-10T15:50:26;-1.20;99.90
18444;DHT22;9350;53.176;8.194;2024-01-10T15:52:52;-1.30;99.90
18444;DHT22;9350;53.176;8.194;2024-01-10T15:55:19;-1.30;99.90
18444;DHT22;9350;53.176;8.194;2024-01-10T15:57:46;-1.20;99.90
18444;DHT22;9350;53.176;8.194;2024-01-10T16:00:15;-1.20;99.90